Terminal Aerodrome Forecast
Issued by NWS Sioux Falls, SD

Home | Current Version | Previous Version | Text Only | Print | Product List | Glossary On
Versions: 1 2 3 4 5 6 7 8 9 10 11 12 13 14
000
FTUS43 KFSD 270520
TAFHON
TAF
KHON 270520Z 2706/2806 13008KT P6SM BKN150
     FM271000 11008KT P6SM VCSH SCT080 OVC120
     FM271400 12010KT P6SM BKN120
     FM272300 07011KT 4SM SHRA BKN035 OVC110
     FM280300 09012KT 6SM -SHRA BKN025=

USA.gov is the U.S. government's official web portal to all federal, state and local government web resources and services.